Hauptseite
METAR-TAF:

METAR-TAF

Flughäfen :

Flughafen Saint Brieuc

Saint-Brieuc, Frankreich

Breite: 48-32N, Länge: 002-51W, Höhe: 138 m

Beobachtung

Neuester Wetterbericht von vor 15 Minuten, um 19:00 UTC
Wind 7 kt aus Ost/Südost, variierte zwischen Ost/Nordost und Südost
Temperatur 5°C
Luftfeuchtigkeit 81%
Luftdruck 1018 hPa
Sichtweite 10 km oder mehr
keine Wolken unter 1500 m und keine Kumulonimbus oder Gewitterwolken

METAR: LFRT 181900Z AUTO 11007KT 070V140 CAVOK 05/02 Q1018

Zeit: 20:15 (19:15 UTC)


TAF: fehlend

Wetterbeobachtungen und Prognosen von mehr als 4000 Flughäfen (METAR und TAF Bericht).

Die verfügbaren Stationen werden durch gelbe und rote Markierungen auf der Karte dargestellt.

Führen Sie die Maus auf sie, um den Namen der Station zu sehen.

Darauf klicken, um die Beobachtung von Wetterbeobachtungen und Prognosen zu sehen.

Um die Karte zu ändern : klicken Sie auf den grünen Tasten mit einem schwarzen Kreuz Zum Vergrößern, auf den grünen Button mit einem Gedankenstrich zu verkleinern, oder auf die grünen Pfeile für benachbarte Karten.


METAR-TAF: